createdAt,value
2023-05-05T00:00:10.614Z,28.57
2023-05-05T00:02:12.353Z,28.57
2023-05-05T00:04:14.139Z,28.57
2023-05-05T00:06:16.006Z,28.58
2023-05-05T00:08:17.767Z,28.57
2023-05-05T00:10:19.531Z,28.55
2023-05-05T00:12:20.994Z,28.54
2023-05-05T00:14:22.520Z,28.56
2023-05-05T00:16:24.150Z,28.55
2023-05-05T00:18:25.700Z,28.56
2023-05-05T00:20:27.194Z,28.57
2023-05-05T00:22:28.848Z,28.59
2023-05-05T00:24:30.299Z,28.59
2023-05-05T00:26:31.784Z,28.60
2023-05-05T00:28:33.240Z,28.59
2023-05-05T00:30:34.851Z,28.59
2023-05-05T00:32:36.581Z,28.58
2023-05-05T00:34:38.270Z,28.57
2023-05-05T00:36:39.924Z,28.58
2023-05-05T00:38:41.462Z,28.59
2023-05-05T00:40:42.952Z,28.59
2023-05-05T00:42:48.157Z,28.59
2023-05-05T00:44:49.613Z,28.59
2023-05-05T00:46:51.311Z,28.61
2023-05-05T00:48:53.217Z,28.62
2023-05-05T00:50:54.700Z,28.60
2023-05-05T00:52:57.596Z,28.59
2023-05-05T00:54:59.385Z,28.60
2023-05-05T00:57:02.187Z,28.59
2023-05-05T00:59:04.294Z,28.60
2023-05-05T01:01:05.685Z,28.59
2023-05-05T01:03:07.370Z,28.60
2023-05-05T01:05:09.549Z,28.60
2023-05-05T01:07:26.712Z,28.61
2023-05-05T01:09:28.277Z,28.62
2023-05-05T01:11:42.244Z,28.63
2023-05-05T01:13:58.021Z,28.60
2023-05-05T01:16:18.756Z,28.61
2023-05-05T01:18:40.433Z,28.61
2023-05-05T01:20:46.924Z,28.61
2023-05-05T01:22:57.000Z,28.62
2023-05-05T01:25:17.873Z,28.63
2023-05-05T01:27:45.371Z,28.63
2023-05-05T01:29:52.928Z,28.64
2023-05-05T01:32:01.550Z,28.64
2023-05-05T01:34:08.555Z,28.63
2023-05-05T01:36:15.589Z,28.64
2023-05-05T01:38:19.166Z,28.63
2023-05-05T01:40:23.001Z,28.62
2023-05-05T01:42:25.214Z,28.62
2023-05-05T01:44:27.811Z,28.62
2023-05-05T01:46:30.475Z,28.63
2023-05-05T01:48:33.389Z,28.63
2023-05-05T01:50:35.836Z,28.64
2023-05-05T01:52:38.262Z,28.64
2023-05-05T01:54:40.455Z,28.63
2023-05-05T01:56:43.046Z,28.63
2023-05-05T01:58:45.071Z,28.65
2023-05-05T02:00:47.194Z,28.64
2023-05-05T02:02:49.808Z,28.61
2023-05-05T02:04:53.118Z,28.62
2023-05-05T02:06:56.266Z,28.64
2023-05-05T02:08:58.855Z,28.58
2023-05-05T02:11:00.922Z,28.64
2023-05-05T02:13:03.176Z,28.63
2023-05-05T02:15:05.166Z,28.64
2023-05-05T02:17:07.372Z,28.64
2023-05-05T02:19:09.036Z,28.63
2023-05-05T02:21:10.741Z,28.63
2023-05-05T02:23:12.186Z,28.63
2023-05-05T02:25:13.809Z,28.63
2023-05-05T02:27:17.711Z,28.62
2023-05-05T02:29:22.425Z,28.63
2023-05-05T02:31:26.396Z,28.64
2023-05-05T02:33:29.356Z,28.65
2023-05-05T02:35:36.490Z,28.66
2023-05-05T02:37:38.901Z,28.67
2023-05-05T02:39:47.559Z,28.65
2023-05-05T02:41:49.579Z,28.63
2023-05-05T02:43:51.163Z,28.64
2023-05-05T02:45:52.654Z,28.64
2023-05-05T02:47:54.138Z,28.62
2023-05-05T02:49:55.681Z,28.61
2023-05-05T02:51:57.988Z,28.63
2023-05-05T02:53:59.903Z,28.63
2023-05-05T02:56:08.125Z,28.64
2023-05-05T02:58:30.570Z,28.64
2023-05-05T03:00:43.919Z,28.65
2023-05-05T03:02:57.897Z,28.64
2023-05-05T03:05:02.479Z,28.64
2023-05-05T03:07:07.170Z,28.66
2023-05-05T03:09:11.159Z,28.64
2023-05-05T03:11:39.160Z,28.62
2023-05-05T03:13:42.800Z,28.64
2023-05-05T03:15:46.253Z,28.66
2023-05-05T03:17:48.815Z,28.66
2023-05-05T03:19:51.112Z,28.67
2023-05-05T03:21:52.828Z,28.66
2023-05-05T03:23:54.312Z,28.65
2023-05-05T03:25:55.752Z,28.65
2023-05-05T03:27:57.286Z,28.65
2023-05-05T03:29:59.289Z,28.66
2023-05-05T03:32:01.456Z,28.64
2023-05-05T03:34:03.001Z,28.65
2023-05-05T03:36:04.564Z,28.67
2023-05-05T03:38:06.070Z,28.67
2023-05-05T03:40:08.206Z,28.67
2023-05-05T03:42:09.977Z,28.68
2023-05-05T03:44:11.395Z,28.65
2023-05-05T03:46:12.993Z,28.68
2023-05-05T03:48:14.574Z,28.67
2023-05-05T03:50:16.372Z,28.68
2023-05-05T03:52:18.209Z,28.67
2023-05-05T03:54:19.754Z,28.67
2023-05-05T03:56:21.366Z,28.67
2023-05-05T03:58:22.841Z,28.66
2023-05-05T04:00:24.358Z,28.65
2023-05-05T04:02:25.859Z,28.65
2023-05-05T04:04:27.492Z,28.67
2023-05-05T04:06:29.112Z,28.67
2023-05-05T04:08:30.526Z,28.67
2023-05-05T04:10:32.138Z,28.68
2023-05-05T04:12:34.057Z,28.69
2023-05-05T04:14:35.789Z,28.67
2023-05-05T04:16:37.431Z,28.64
2023-05-05T04:18:38.881Z,28.65
2023-05-05T04:20:40.665Z,28.67
2023-05-05T04:22:42.316Z,28.66
2023-05-05T04:24:43.848Z,28.66
2023-05-05T04:26:45.577Z,28.68
2023-05-05T04:28:47.010Z,28.68
2023-05-05T04:30:48.421Z,28.67
2023-05-05T04:32:49.894Z,28.68
2023-05-05T04:34:51.513Z,28.68
2023-05-05T04:36:52.938Z,28.67
2023-05-05T04:38:54.784Z,28.67
2023-05-05T04:40:56.385Z,28.67
2023-05-05T04:42:57.835Z,28.67
2023-05-05T04:44:59.352Z,28.67
2023-05-05T04:47:01.046Z,28.69
2023-05-05T04:49:04.956Z,28.68
2023-05-05T04:51:06.789Z,28.66
2023-05-05T04:53:08.231Z,28.67
2023-05-05T04:55:10.725Z,28.68
2023-05-05T04:57:12.187Z,28.67
2023-05-05T04:59:16.728Z,28.68
2023-05-05T05:01:18.222Z,28.67
2023-05-05T05:03:19.811Z,28.68
2023-05-05T05:05:21.659Z,28.67
2023-05-05T05:07:24.617Z,28.66
2023-05-05T05:09:26.015Z,28.67
2023-05-05T05:11:27.858Z,28.67
2023-05-05T05:13:29.359Z,28.68
2023-05-05T05:15:30.987Z,28.69
2023-05-05T05:17:33.318Z,28.68
2023-05-05T05:19:34.917Z,28.66
2023-05-05T05:21:36.433Z,28.68
2023-05-05T05:23:37.857Z,28.67
2023-05-05T05:25:39.274Z,28.68
2023-05-05T05:27:41.716Z,28.69
2023-05-05T05:29:43.727Z,28.66
2023-05-05T05:31:45.204Z,28.66
2023-05-05T05:33:46.607Z,28.67
2023-05-05T05:35:48.098Z,28.65
2023-05-05T05:37:50.744Z,28.66
2023-05-05T05:39:52.340Z,28.66
2023-05-05T05:41:53.774Z,28.65
2023-05-05T05:43:55.344Z,28.65
2023-05-05T05:45:56.880Z,28.66
2023-05-05T05:47:58.417Z,28.67
2023-05-05T05:50:00.168Z,28.68
2023-05-05T05:52:01.795Z,28.67
2023-05-05T05:54:03.459Z,28.69
2023-05-05T05:56:05.108Z,28.69
2023-05-05T05:58:06.556Z,28.69
2023-05-05T06:00:08.734Z,28.67
2023-05-05T06:02:10.552Z,28.67
2023-05-05T06:04:13.377Z,28.66
2023-05-05T06:06:14.827Z,28.67
2023-05-05T06:08:16.379Z,28.68
2023-05-05T06:10:30.324Z,28.67
2023-05-05T06:12:31.985Z,28.67
2023-05-05T06:14:33.418Z,28.68
2023-05-05T06:16:35.076Z,28.68
2023-05-05T06:18:36.797Z,28.68
2023-05-05T06:20:38.614Z,28.66
2023-05-05T06:22:40.159Z,28.68
2023-05-05T06:24:41.581Z,28.67
2023-05-05T06:26:43.027Z,28.65
2023-05-05T06:28:44.626Z,28.66
2023-05-05T06:30:46.209Z,28.64
2023-05-05T06:32:47.707Z,28.65
2023-05-05T06:34:49.404Z,28.67
2023-05-05T06:36:51.593Z,28.65
2023-05-05T06:38:53.079Z,28.67
2023-05-05T06:40:54.648Z,28.67
2023-05-05T06:42:56.163Z,28.67
2023-05-05T06:44:57.700Z,28.66
2023-05-05T06:46:59.243Z,28.68
2023-05-05T06:49:00.759Z,28.65
2023-05-05T06:51:02.445Z,28.64
2023-05-05T06:53:03.897Z,28.66
2023-05-05T06:55:05.949Z,28.65
2023-05-05T06:57:07.380Z,28.67
2023-05-05T06:59:08.851Z,28.68
2023-05-05T07:01:10.346Z,28.68
2023-05-05T07:03:12.089Z,28.67
2023-05-05T07:05:13.735Z,28.67
2023-05-05T07:07:15.309Z,28.67
2023-05-05T07:09:17.502Z,28.67
2023-05-05T07:11:19.885Z,28.67
2023-05-05T07:13:21.734Z,28.66
2023-05-05T07:15:27.353Z,28.65
2023-05-05T07:17:30.521Z,28.66
2023-05-05T07:19:31.962Z,28.67
2023-05-05T07:21:34.271Z,28.65
2023-05-05T07:23:37.481Z,28.66
2023-05-05T07:25:38.961Z,28.67
2023-05-05T07:27:40.721Z,28.65
2023-05-05T07:29:42.131Z,28.66
2023-05-05T07:31:43.590Z,28.66
2023-05-05T07:33:45.424Z,28.66
2023-05-05T07:35:46.858Z,28.68
2023-05-05T07:37:48.496Z,28.68
2023-05-05T07:39:50.182Z,28.69
2023-05-05T07:41:51.643Z,28.68
2023-05-05T07:43:53.395Z,28.66
2023-05-05T07:45:54.985Z,28.68
2023-05-05T07:47:56.477Z,28.69
2023-05-05T07:49:58.147Z,28.69
2023-05-05T07:51:59.937Z,28.62
2023-05-05T07:54:01.609Z,28.46
2023-05-05T07:56:03.247Z,28.34
2023-05-05T07:58:05.249Z,28.26
2023-05-05T08:00:07.217Z,28.14
2023-05-05T08:02:09.852Z,28.09
2023-05-05T08:04:11.335Z,28.01
2023-05-05T08:06:15.958Z,27.99
2023-05-05T08:08:17.433Z,27.96
2023-05-05T08:10:19.029Z,27.88
2023-05-05T08:12:20.450Z,27.80
2023-05-05T08:14:21.935Z,27.75
2023-05-05T08:16:23.796Z,27.63
2023-05-05T08:18:25.371Z,27.55
2023-05-05T08:20:28.304Z,27.51
2023-05-05T08:22:29.738Z,27.37
2023-05-05T08:24:31.159Z,27.32
2023-05-05T08:26:32.704Z,27.19
2023-05-05T08:28:35.435Z,27.21
2023-05-05T08:30:36.977Z,27.17
2023-05-05T08:32:38.789Z,27.16
2023-05-05T08:34:40.478Z,27.12
2023-05-05T08:36:42.109Z,27.03
2023-05-05T08:38:43.832Z,27.02
2023-05-05T08:40:45.427Z,26.94
2023-05-05T08:42:46.979Z,26.84
2023-05-05T08:44:48.883Z,26.78
2023-05-05T08:46:50.631Z,26.75
2023-05-05T08:48:55.014Z,26.75
2023-05-05T08:51:00.334Z,26.72
2023-05-05T08:53:10.587Z,26.75
2023-05-05T08:55:19.556Z,26.69
2023-05-05T08:57:25.022Z,26.67
2023-05-05T08:59:30.313Z,26.68
2023-05-05T09:01:32.444Z,26.65
2023-05-05T09:03:35.647Z,26.62
2023-05-05T09:05:37.438Z,26.58
2023-05-05T09:07:41.395Z,26.59
2023-05-05T09:09:43.430Z,26.56
2023-05-05T09:11:45.015Z,26.51
2023-05-05T09:13:47.573Z,26.49
2023-05-05T09:15:49.165Z,26.48
2023-05-05T09:17:50.771Z,26.49
2023-05-05T09:20:05.424Z,26.48
2023-05-05T09:22:06.903Z,26.44
2023-05-05T09:24:09.682Z,26.42
2023-05-05T09:26:11.545Z,26.40
2023-05-05T09:28:14.163Z,26.39
2023-05-05T09:30:23.900Z,26.35
2023-05-05T09:32:25.779Z,26.33
2023-05-05T09:34:27.538Z,26.32
2023-05-05T09:36:47.406Z,26.34
2023-05-05T09:39:06.100Z,26.32
2023-05-05T09:41:07.854Z,26.34
2023-05-05T09:43:09.558Z,26.35
2023-05-05T09:45:20.149Z,26.39
2023-05-05T09:47:29.282Z,26.39
2023-05-05T09:49:31.612Z,26.36
2023-05-05T09:51:36.299Z,26.19
2023-05-05T09:53:39.492Z,26.29
2023-05-05T09:55:41.786Z,26.26
2023-05-05T09:57:43.306Z,26.26
2023-05-05T09:59:54.607Z,26.22
2023-05-05T10:02:09.368Z,26.15
2023-05-05T10:04:22.553Z,26.18
2023-05-05T10:06:39.320Z,26.22
2023-05-05T10:08:41.112Z,26.25
2023-05-05T10:10:51.732Z,26.26
2023-05-05T10:12:54.456Z,26.33
2023-05-05T10:14:56.730Z,26.30
2023-05-05T10:17:00.920Z,26.28
2023-05-05T10:19:03.348Z,26.26
2023-05-05T10:21:04.947Z,26.24
2023-05-05T10:23:08.220Z,26.26
2023-05-05T10:25:10.968Z,26.25
2023-05-05T10:27:15.531Z,26.29
2023-05-05T10:29:22.998Z,26.33
2023-05-05T10:31:27.029Z,26.38
2023-05-05T10:33:38.822Z,26.26
2023-05-05T10:35:41.652Z,26.30
2023-05-05T10:37:44.529Z,26.26
2023-05-05T10:39:46.637Z,26.27
2023-05-05T10:41:48.262Z,26.25
2023-05-05T10:43:50.044Z,26.34
2023-05-05T10:45:51.823Z,26.37
2023-05-05T10:47:54.642Z,26.29
2023-05-05T10:50:14.904Z,26.29
2023-05-05T10:52:28.377Z,26.20
2023-05-05T10:54:38.104Z,26.16
2023-05-05T10:56:41.176Z,26.20
2023-05-05T10:58:58.216Z,26.22
2023-05-05T11:01:02.369Z,26.07
2023-05-05T11:03:16.073Z,25.98
2023-05-05T11:05:18.231Z,25.92
2023-05-05T11:07:23.642Z,25.99
2023-05-05T11:09:26.981Z,26.04
2023-05-05T11:11:48.378Z,26.07
2023-05-05T11:14:09.812Z,26.02
2023-05-05T11:16:30.246Z,25.97
2023-05-05T11:18:39.018Z,25.96
2023-05-05T11:20:44.470Z,25.95
2023-05-05T11:23:04.279Z,25.89
2023-05-05T11:25:25.474Z,25.99
2023-05-05T11:27:46.909Z,25.98
2023-05-05T11:30:03.778Z,25.99
2023-05-05T11:32:15.521Z,25.98
2023-05-05T11:34:29.300Z,25.99
2023-05-05T11:36:40.486Z,26.01
2023-05-05T11:38:54.205Z,25.98
2023-05-05T11:40:59.327Z,25.99
2023-05-05T11:43:04.416Z,26.04
2023-05-05T11:45:19.607Z,26.04
2023-05-05T11:47:21.089Z,26.13
2023-05-05T11:49:32.994Z,26.10
2023-05-05T11:51:34.593Z,26.12
2023-05-05T11:53:36.259Z,26.03
2023-05-05T11:55:37.647Z,26.04
2023-05-05T11:57:39.144Z,26.04
2023-05-05T12:00:00.452Z,26.10
2023-05-05T12:02:03.312Z,26.10
2023-05-05T12:04:05.068Z,26.08
2023-05-05T12:06:07.412Z,26.07
2023-05-05T12:08:10.318Z,26.09
2023-05-05T12:10:11.934Z,26.04
2023-05-05T12:12:13.981Z,25.93
2023-05-05T12:14:15.488Z,25.89
2023-05-05T12:16:19.432Z,25.78
2023-05-05T12:18:21.085Z,25.89
2023-05-05T12:20:32.690Z,25.85
2023-05-05T12:22:36.164Z,25.86
2023-05-05T12:24:37.665Z,25.82
2023-05-05T12:26:39.405Z,25.84
2023-05-05T12:28:46.670Z,25.76
2023-05-05T12:30:58.733Z,25.80
2023-05-05T12:33:01.563Z,25.82
2023-05-05T12:35:03.592Z,25.80
2023-05-05T12:37:05.141Z,25.76
2023-05-05T12:39:06.678Z,25.75
2023-05-05T12:41:08.230Z,25.76
2023-05-05T12:43:09.815Z,25.76
2023-05-05T12:45:17.319Z,25.73
2023-05-05T12:47:31.994Z,25.73
2023-05-05T12:49:49.371Z,25.66
2023-05-05T12:51:54.871Z,25.68
2023-05-05T12:54:03.098Z,25.73
2023-05-05T12:56:04.760Z,25.83
2023-05-05T12:58:06.337Z,25.73
2023-05-05T13:00:14.848Z,25.66
2023-05-05T13:02:16.979Z,25.68
2023-05-05T13:04:19.134Z,25.66
2023-05-05T13:06:21.105Z,25.73
2023-05-05T13:08:22.672Z,25.68
2023-05-05T13:10:25.073Z,25.71
2023-05-05T13:12:26.750Z,25.72
2023-05-05T13:14:28.312Z,25.65
2023-05-05T13:16:30.039Z,25.71
2023-05-05T13:18:31.618Z,25.69
2023-05-05T13:20:33.129Z,25.67
2023-05-05T13:22:34.593Z,25.62
2023-05-05T13:24:49.762Z,25.68
2023-05-05T13:26:53.188Z,25.72
2023-05-05T13:28:55.209Z,25.56
2023-05-05T13:30:58.609Z,25.62
2023-05-05T13:33:00.053Z,25.50
2023-05-05T13:35:01.667Z,25.38
2023-05-05T13:37:03.342Z,25.55
2023-05-05T13:39:05.047Z,25.67
2023-05-05T13:41:06.527Z,25.76
2023-05-05T13:43:08.045Z,25.77
2023-05-05T13:45:09.909Z,25.84
2023-05-05T13:47:11.561Z,25.85
2023-05-05T13:49:13.311Z,25.86
2023-05-05T13:51:15.983Z,25.76
2023-05-05T13:53:17.498Z,25.82
2023-05-05T13:55:19.059Z,25.85
2023-05-05T13:57:20.531Z,25.86
2023-05-05T13:59:22.176Z,25.86
2023-05-05T14:01:23.782Z,25.93
2023-05-05T14:03:25.358Z,25.92
2023-05-05T14:05:26.908Z,25.90
2023-05-05T14:07:28.542Z,25.81
2023-05-05T14:09:30.112Z,25.83
2023-05-05T14:11:31.656Z,25.86
2023-05-05T14:13:33.104Z,25.63
2023-05-05T14:15:34.661Z,25.68
2023-05-05T14:17:36.190Z,25.80
2023-05-05T14:19:37.907Z,25.88
2023-05-05T14:21:39.638Z,25.86
2023-05-05T14:23:41.119Z,25.89
2023-05-05T14:25:42.727Z,25.96
2023-05-05T14:27:44.336Z,26.03
2023-05-05T14:29:45.869Z,26.09
2023-05-05T14:31:47.346Z,26.13
2023-05-05T14:33:49.000Z,26.12
2023-05-05T14:35:50.522Z,26.20
2023-05-05T14:37:51.961Z,26.15
2023-05-05T14:39:54.632Z,26.12
2023-05-05T14:41:56.115Z,26.02
2023-05-05T14:43:57.566Z,26.01
2023-05-05T14:46:00.368Z,25.83
2023-05-05T14:48:02.391Z,25.88
2023-05-05T14:50:04.108Z,25.83
2023-05-05T14:52:05.787Z,25.92
2023-05-05T14:54:14.307Z,26.00
2023-05-05T14:56:22.730Z,26.02
2023-05-05T14:58:24.775Z,26.03
2023-05-05T15:00:26.875Z,26.12
2023-05-05T15:02:30.892Z,26.15
2023-05-05T15:04:32.383Z,26.10
2023-05-05T15:06:33.964Z,26.14
2023-05-05T15:08:35.556Z,26.18
2023-05-05T15:10:37.046Z,26.17
2023-05-05T15:12:39.223Z,26.25
2023-05-05T15:14:40.880Z,26.17
2023-05-05T15:16:42.484Z,26.11
2023-05-05T15:18:43.929Z,26.05
2023-05-05T15:20:45.582Z,26.03
2023-05-05T15:22:48.445Z,26.10
2023-05-05T15:24:51.124Z,26.08
2023-05-05T15:26:52.554Z,26.02
2023-05-05T15:28:53.956Z,26.01
2023-05-05T15:30:55.463Z,26.03
2023-05-05T15:32:57.093Z,25.96
2023-05-05T15:34:58.702Z,25.91
2023-05-05T15:37:00.399Z,25.82
2023-05-05T15:39:02.057Z,25.85
2023-05-05T15:41:03.845Z,25.77
2023-05-05T15:43:05.576Z,25.79
2023-05-05T15:45:08.181Z,25.82
2023-05-05T15:47:10.973Z,25.81
2023-05-05T15:49:12.492Z,25.88
2023-05-05T15:51:14.038Z,25.81
2023-05-05T15:53:16.492Z,25.79
2023-05-05T15:55:17.974Z,25.73
2023-05-05T15:57:19.441Z,25.79
2023-05-05T15:59:21.035Z,25.86
2023-05-05T16:01:22.616Z,25.87
2023-05-05T16:03:24.415Z,25.88
2023-05-05T16:05:25.939Z,25.85
2023-05-05T16:07:27.358Z,25.86
2023-05-05T16:09:28.987Z,25.90
2023-05-05T16:11:30.859Z,25.94
2023-05-05T16:13:32.606Z,25.97
2023-05-05T16:15:35.199Z,25.92
2023-05-05T16:17:36.733Z,25.95
2023-05-05T16:19:38.438Z,25.98
2023-05-05T16:21:39.861Z,26.00
2023-05-05T16:23:41.414Z,26.01
2023-05-05T16:25:43.133Z,25.96
2023-05-05T16:27:44.575Z,26.01
2023-05-05T16:29:46.069Z,26.03
2023-05-05T16:31:47.703Z,25.97
2023-05-05T16:33:49.201Z,25.96
2023-05-05T16:35:50.654Z,25.98
2023-05-05T16:37:52.562Z,25.87
2023-05-05T16:39:53.963Z,25.98
2023-05-05T16:41:55.445Z,25.97
2023-05-05T16:43:57.086Z,25.94
2023-05-05T16:46:00.134Z,26.02
2023-05-05T16:48:01.793Z,26.00
2023-05-05T16:50:03.967Z,26.01
2023-05-05T16:52:05.473Z,25.99
2023-05-05T16:54:06.969Z,25.99
2023-05-05T16:56:11.300Z,25.99
2023-05-05T16:58:12.834Z,26.01
2023-05-05T17:00:14.600Z,25.99
2023-05-05T17:02:16.176Z,26.01
2023-05-05T17:04:17.648Z,26.00
2023-05-05T17:06:19.349Z,25.94
2023-05-05T17:08:20.862Z,25.96
2023-05-05T17:10:22.922Z,26.01
2023-05-05T17:12:24.373Z,26.06
2023-05-05T17:14:27.295Z,26.02
2023-05-05T17:16:28.785Z,25.95
2023-05-05T17:18:30.318Z,25.97
2023-05-05T17:20:32.078Z,25.99
2023-05-05T17:22:33.586Z,25.99
2023-05-05T17:24:35.008Z,26.02
2023-05-05T17:26:36.649Z,25.97
2023-05-05T17:28:38.101Z,25.91
2023-05-05T17:30:39.669Z,25.85
2023-05-05T17:32:41.534Z,25.85
2023-05-05T17:34:43.021Z,25.88
2023-05-05T17:36:44.453Z,25.80
2023-05-05T17:38:45.927Z,25.78
2023-05-05T17:40:47.524Z,25.78
2023-05-05T17:42:48.948Z,25.78
2023-05-05T17:44:50.504Z,25.81
2023-05-05T17:46:52.039Z,25.83
2023-05-05T17:48:53.683Z,25.87
2023-05-05T17:50:55.253Z,25.92
2023-05-05T17:52:56.680Z,25.94
2023-05-05T17:54:58.122Z,25.95
2023-05-05T17:56:59.644Z,25.93
2023-05-05T17:59:01.437Z,25.93
2023-05-05T18:01:02.981Z,25.94
2023-05-05T18:03:04.740Z,25.97
2023-05-05T18:05:06.479Z,25.96
2023-05-05T18:07:08.417Z,25.96
2023-05-05T18:09:11.154Z,25.93
2023-05-05T18:11:12.978Z,25.94
2023-05-05T18:13:14.473Z,25.93
2023-05-05T18:15:15.986Z,25.94
2023-05-05T18:17:17.626Z,25.91
2023-05-05T18:19:20.048Z,25.94
2023-05-05T18:21:21.529Z,25.89
2023-05-05T18:23:23.015Z,25.91
2023-05-05T18:25:24.563Z,25.94
2023-05-05T18:27:28.646Z,26.05
2023-05-05T18:29:30.304Z,26.14
2023-05-05T18:31:31.852Z,26.26
2023-05-05T18:33:33.387Z,26.31
2023-05-05T18:35:34.870Z,26.44
2023-05-05T18:37:36.375Z,26.59
2023-05-05T18:39:38.216Z,26.72
2023-05-05T18:41:39.839Z,26.84
2023-05-05T18:43:41.375Z,26.94
2023-05-05T18:45:42.834Z,26.96
2023-05-05T18:47:44.417Z,26.98
2023-05-05T18:49:45.870Z,26.99
2023-05-05T18:51:47.454Z,26.99
2023-05-05T18:53:49.480Z,26.98
2023-05-05T18:55:51.045Z,26.96
2023-05-05T18:57:53.129Z,26.96
2023-05-05T18:59:54.598Z,26.97
2023-05-05T19:01:56.468Z,26.97
2023-05-05T19:03:58.164Z,26.98
2023-05-05T19:05:59.610Z,26.97
2023-05-05T19:08:01.067Z,26.98
2023-05-05T19:10:04.057Z,26.98
2023-05-05T19:12:07.863Z,26.98
2023-05-05T19:14:09.268Z,26.97
2023-05-05T19:16:11.679Z,26.98
2023-05-05T19:18:13.645Z,26.96
2023-05-05T19:20:15.113Z,26.97
2023-05-05T19:22:17.600Z,26.99
2023-05-05T19:24:19.120Z,27.00
2023-05-05T19:26:21.789Z,27.01
2023-05-05T19:28:23.266Z,27.01
2023-05-05T19:30:24.827Z,27.01
2023-05-05T19:32:26.920Z,27.03
2023-05-05T19:34:28.424Z,27.03
2023-05-05T19:36:31.607Z,27.03
2023-05-05T19:38:33.053Z,27.04
2023-05-05T19:40:34.465Z,27.04
2023-05-05T19:42:35.936Z,27.05
2023-05-05T19:44:37.695Z,27.05
2023-05-05T19:46:39.323Z,27.06
2023-05-05T19:48:41.270Z,27.08
2023-05-05T19:50:42.763Z,27.10
2023-05-05T19:52:44.280Z,27.10
2023-05-05T19:54:45.732Z,27.12
2023-05-05T19:56:47.333Z,27.12
2023-05-05T19:59:07.096Z,27.11
2023-05-05T20:01:08.590Z,27.13
2023-05-05T20:03:11.025Z,27.13
2023-05-05T20:05:14.046Z,27.14
2023-05-05T20:07:15.811Z,27.16
2023-05-05T20:09:17.718Z,27.17
2023-05-05T20:11:20.138Z,27.20
2023-05-05T20:13:21.789Z,27.21
2023-05-05T20:15:23.372Z,27.21
2023-05-05T20:17:26.165Z,27.20
2023-05-05T20:19:27.808Z,27.21
2023-05-05T20:21:29.591Z,27.21
2023-05-05T20:23:31.125Z,27.21
2023-05-05T20:25:32.567Z,27.21
2023-05-05T20:27:35.864Z,27.24
2023-05-05T20:29:40.994Z,27.24
2023-05-05T20:31:42.518Z,27.25
2023-05-05T20:33:44.074Z,27.25
2023-05-05T20:35:45.633Z,27.26
2023-05-05T20:37:48.601Z,27.27
2023-05-05T20:39:51.139Z,27.27
2023-05-05T20:41:52.594Z,27.29
2023-05-05T20:43:53.999Z,27.29
2023-05-05T20:45:55.628Z,27.27
2023-05-05T20:47:57.231Z,27.30
2023-05-05T20:49:58.781Z,27.31
2023-05-05T20:52:00.228Z,27.32
2023-05-05T20:54:02.218Z,27.32
2023-05-05T20:56:04.800Z,27.35
2023-05-05T20:58:07.784Z,27.35
2023-05-05T21:00:09.711Z,27.34
2023-05-05T21:02:11.440Z,27.34
2023-05-05T21:04:12.921Z,27.34
2023-05-05T21:06:14.292Z,27.34
2023-05-05T21:08:15.974Z,27.35
2023-05-05T21:10:18.576Z,27.37
2023-05-05T21:12:20.031Z,27.30
2023-05-05T21:14:21.897Z,27.40
2023-05-05T21:16:23.358Z,27.40
2023-05-05T21:18:27.434Z,27.42
2023-05-05T21:20:28.910Z,27.44
2023-05-05T21:22:30.664Z,27.43
2023-05-05T21:24:32.255Z,27.34
2023-05-05T21:26:33.774Z,27.45
2023-05-05T21:28:35.377Z,27.46
2023-05-05T21:30:38.081Z,27.44
2023-05-05T21:32:39.986Z,27.45
2023-05-05T21:34:41.490Z,27.47
2023-05-05T21:36:42.995Z,27.48
2023-05-05T21:38:44.681Z,27.49
2023-05-05T21:40:46.294Z,27.49
2023-05-05T21:42:47.774Z,27.49
2023-05-05T21:44:49.513Z,27.48
2023-05-05T21:46:52.782Z,27.48
2023-05-05T21:48:54.335Z,27.46
2023-05-05T21:50:55.819Z,27.50
2023-05-05T21:52:57.378Z,27.50
2023-05-05T21:54:58.905Z,27.52
2023-05-05T21:57:00.515Z,27.53
2023-05-05T21:59:02.405Z,27.55
2023-05-05T22:01:03.987Z,27.59
2023-05-05T22:03:05.627Z,27.57
2023-05-05T22:05:07.380Z,27.58
2023-05-05T22:07:08.871Z,27.60
2023-05-05T22:09:10.574Z,27.59
2023-05-05T22:11:12.085Z,27.60
2023-05-05T22:13:14.514Z,27.58
2023-05-05T22:15:19.242Z,27.44
2023-05-05T22:17:20.722Z,27.62
2023-05-05T22:19:22.170Z,27.62
2023-05-05T22:21:23.774Z,27.64
2023-05-05T22:23:25.362Z,27.64
2023-05-05T22:25:26.883Z,27.64
2023-05-05T22:27:28.314Z,27.65
2023-05-05T22:29:29.812Z,27.65
2023-05-05T22:31:31.472Z,27.64
2023-05-05T22:33:33.054Z,27.65
2023-05-05T22:35:34.467Z,27.64
2023-05-05T22:37:36.427Z,27.64
2023-05-05T22:39:37.842Z,27.67
2023-05-05T22:41:39.233Z,27.67
2023-05-05T22:43:40.731Z,27.69
2023-05-05T22:45:43.144Z,27.69
2023-05-05T22:47:45.222Z,27.67
2023-05-05T22:49:47.472Z,27.68
2023-05-05T22:51:49.027Z,27.68
2023-05-05T22:53:51.082Z,27.68
2023-05-05T22:55:52.595Z,27.68
2023-05-05T22:57:54.598Z,27.67
2023-05-05T22:59:56.133Z,27.69
2023-05-05T23:01:57.915Z,27.69
2023-05-05T23:03:59.480Z,27.71
2023-05-05T23:06:00.906Z,27.71
2023-05-05T23:08:02.366Z,27.72
2023-05-05T23:10:04.157Z,27.72
2023-05-05T23:12:05.711Z,27.71
2023-05-05T23:14:07.089Z,27.71
2023-05-05T23:16:08.680Z,27.71
2023-05-05T23:18:10.211Z,27.71
2023-05-05T23:20:13.066Z,27.70
2023-05-05T23:22:14.587Z,27.72
2023-05-05T23:24:16.082Z,27.72
2023-05-05T23:26:17.474Z,27.74
2023-05-05T23:28:20.293Z,27.76
2023-05-05T23:30:21.790Z,27.76
2023-05-05T23:32:23.846Z,27.75
2023-05-05T23:34:25.905Z,27.77
2023-05-05T23:36:27.657Z,27.77
2023-05-05T23:38:29.411Z,27.77
2023-05-05T23:40:31.122Z,27.76
2023-05-05T23:42:32.919Z,27.76
2023-05-05T23:44:34.468Z,27.78
2023-05-05T23:46:36.033Z,27.78
2023-05-05T23:48:37.534Z,27.80
2023-05-05T23:50:39.419Z,27.80
2023-05-05T23:52:41.813Z,27.80
2023-05-05T23:54:44.473Z,27.79
2023-05-05T23:56:47.754Z,27.79
2023-05-05T23:58:49.201Z,27.78
